createdAt,value
2023-03-25T06:20:15.786Z,181.01
2023-03-25T06:30:15.634Z,179.87
2023-03-25T06:40:15.694Z,179.07
2023-03-25T06:50:15.732Z,178.80
2023-03-25T07:00:15.764Z,178.97
2023-03-25T07:10:15.808Z,177.47
2023-03-25T07:20:17.020Z,179.33
2023-03-25T07:30:16.018Z,179.92
2023-03-25T07:40:15.916Z,175.76
2023-03-25T07:50:15.885Z,178.06
2023-03-25T08:00:15.839Z,179.11
2023-03-25T08:10:15.940Z,185.03
2023-03-25T08:20:15.915Z,178.98
2023-03-25T08:30:16.060Z,179.21
2023-03-25T08:40:16.082Z,178.22
2023-03-25T08:50:16.402Z,180.61
2023-03-25T09:00:16.208Z,182.68
2023-03-25T09:10:16.210Z,178.99
2023-03-25T09:20:16.242Z,179.02
2023-03-25T09:30:16.353Z,179.91
2023-03-25T09:40:16.255Z,178.26
2023-03-25T09:50:16.311Z,178.67
2023-03-25T10:00:16.345Z,176.17
2023-03-25T10:10:16.174Z,179.77
2023-03-25T10:20:16.239Z,177.38
2023-03-25T10:30:16.403Z,179.05
2023-03-25T10:40:16.201Z,179.57
2023-03-25T10:50:16.335Z,179.91
2023-03-25T11:00:16.588Z,180.10
2023-03-25T11:10:16.425Z,178.45
2023-03-25T11:20:16.606Z,178.83
2023-03-25T11:30:16.268Z,181.27
2023-03-25T11:40:16.396Z,179.95
2023-03-25T11:50:16.441Z,190.75
2023-03-25T12:00:16.513Z,183.26
2023-03-25T12:10:16.386Z,186.51
2023-03-25T12:20:16.598Z,185.30
2023-03-25T12:30:16.631Z,192.12
2023-03-25T12:40:16.605Z,176.22
2023-03-25T12:50:16.504Z,188.93
2023-03-25T13:00:16.411Z,190.89
2023-03-25T13:10:16.465Z,189.41
2023-03-25T13:20:16.506Z,181.30
2023-03-25T13:30:16.527Z,181.42
2023-03-25T13:40:16.600Z,181.44
2023-03-25T13:50:16.560Z,190.45
2023-03-25T14:00:16.485Z,187.41
2023-03-25T14:10:16.642Z,228.07
2023-03-25T14:20:16.515Z,184.97
2023-03-25T14:30:16.714Z,178.63
2023-03-25T14:40:16.625Z,181.09
2023-03-25T14:50:16.468Z,185.17
2023-03-25T15:00:16.718Z,180.21
2023-03-25T15:10:16.716Z,182.14
2023-03-25T15:20:16.511Z,181.24
2023-03-25T15:30:17.364Z,191.89
2023-03-25T15:40:16.585Z,181.90
2023-03-25T15:50:16.607Z,179.71
2023-03-25T16:00:16.621Z,179.72
2023-03-25T16:10:16.682Z,179.69
2023-03-25T16:20:16.614Z,180.17
2023-03-25T16:30:16.674Z,177.28
2023-03-25T16:40:16.611Z,179.33
2023-03-25T16:50:16.659Z,181.76
2023-03-25T17:00:16.806Z,172.75
2023-03-25T17:10:16.625Z,178.65
2023-03-25T17:20:17.051Z,180.97
2023-03-25T17:30:16.796Z,177.48
2023-03-25T17:40:16.635Z,178.72
2023-03-25T17:50:16.665Z,181.74
2023-03-25T18:00:16.783Z,180.15
2023-03-25T18:10:16.739Z,179.08
2023-03-25T18:20:16.828Z,208.82
2023-03-25T18:30:16.744Z,321.90
2023-03-25T18:40:16.690Z,258.66
2023-03-25T18:50:16.818Z,232.88
2023-03-25T19:00:17.158Z,313.71
2023-03-25T19:10:17.118Z,241.26
2023-03-25T19:20:17.280Z,191.28
